Terminal Aerodrome Forecast
Issued by NWS

Home | Current Version | Previous Version | Text Only | Print | Product List | Glossary On
Versions: 1 2 3 4 5 6 7 8 9 10 11 12 13 14 15 16 17 18 19 20 21 22 23
000
FTUS46 KMFR 280534
TAFOTH
TAF
KOTH 280534Z 2806/2906 36007KT P6SM OVC010
     FM281400 36003KT 2SM BR OVC005
     FM281900 35018G25KT P6SM SCT015
     FM290500 36012KT P6SM BKN007=

USA.gov is the U.S. government's official web portal to all federal, state and local government web resources and services.